Time;durP1;ratioP1;P1;durP2;ratioP2;P2;SDS_P1;SDS_P2;PMS_P1;PMS_P2;Temp;Humidity;BMP_temperature;BMP_pressure;BME280_temperature;BME280_humidity;BME280_pressure;Samples;Min_cycle;Max_cycle;Signal;HPM_P1;HPM_P2
2021/09/09 00:09:37;;;;;;;5.05;3.85;;;19.60;69.60;;;;;;21018231;28;20032;-78
2021/09/09 00:19:38;;;;;;;6.20;3.75;;;19.60;69.60;;;;;;21034356;28;20382;-79
2021/09/09 00:29:39;;;;;;;5.07;3.50;;;19.60;69.60;;;;;;21033130;28;20031;-78
2021/09/09 00:39:40;;;;;;;3.70;3.10;;;19.60;69.70;;;;;;21031735;28;20116;-79
2021/09/09 00:49:42;;;;;;;5.13;3.75;;;19.60;69.60;;;;;;21031103;28;20089;-79
2021/09/09 00:59:43;;;;;;;5.05;3.83;;;19.60;69.60;;;;;;21029999;28;20478;-79
2021/09/09 01:09:44;;;;;;;5.30;3.55;;;19.60;69.70;;;;;;21028795;28;20027;-78
2021/09/09 01:19:44;;;;;;;5.32;3.95;;;19.50;69.60;;;;;;21028459;28;20127;-79
2021/09/09 01:29:45;;;;;;;7.00;3.65;;;19.60;69.70;;;;;;21044141;28;20035;-78
2021/09/09 01:39:46;;;;;;;5.10;3.58;;;19.50;69.70;;;;;;21044585;28;20545;-80
2021/09/09 01:49:47;;;;;;;5.30;3.15;;;19.60;69.80;;;;;;21025877;28;20092;-78
2021/09/09 01:59:48;;;;;;;5.90;3.92;;;19.50;69.80;;;;;;21009853;28;20047;-79
2021/09/09 02:09:48;;;;;;;4.38;3.38;;;19.50;69.80;;;;;;21042236;28;20065;-78
2021/09/09 02:19:50;;;;;;;4.75;3.40;;;19.50;69.80;;;;;;21058590;28;20156;-78
2021/09/09 02:29:51;;;;;;;5.80;3.58;;;19.50;69.90;;;;;;21040220;28;20135;-79
2021/09/09 02:39:51;;;;;;;4.95;3.38;;;19.50;69.90;;;;;;21040013;28;20055;-80
2021/09/09 02:49:52;;;;;;;5.93;3.80;;;19.60;69.90;;;;;;21039466;28;20051;-78
2021/09/09 02:59:53;;;;;;;4.90;3.50;;;19.50;69.90;;;;;;21056580;28;20470;-78
2021/09/09 03:09:54;;;;;;;4.88;3.83;;;19.50;69.90;;;;;;21035350;28;20036;-83
2021/09/09 03:19:55;;;;;;;6.20;3.22;;;19.50;69.90;;;;;;21038653;28;20039;-79
2021/09/09 03:29:56;;;;;;;5.95;3.92;;;19.50;69.90;;;;;;21053702;28;20059;-79
2021/09/09 03:39:56;;;;;;;5.53;4.03;;;19.50;69.90;;;;;;21053303;28;20583;-78
2021/09/09 03:49:57;;;;;;;6.75;4.50;;;19.50;69.90;;;;;;21052124;28;20090;-78
2021/09/09 03:59:58;;;;;;;4.78;3.38;;;19.50;69.90;;;;;;21018197;28;20476;-79
2021/09/09 04:09:58;;;;;;;4.75;3.30;;;19.50;69.90;;;;;;21050865;28;20120;-79
2021/09/09 04:19:59;;;;;;;4.70;3.08;;;19.50;69.90;;;;;;21048794;28;20086;-82
2021/09/09 04:30:00;;;;;;;5.70;3.93;;;19.50;69.90;;;;;;21029632;28;20036;-81
2021/09/09 04:40:02;;;;;;;5.45;3.35;;;19.50;69.90;;;;;;21029261;28;20282;-77
2021/09/09 04:50:03;;;;;;;6.10;3.95;;;19.50;69.90;;;;;;21029571;28;20043;-76
2021/09/09 05:00:05;;;;;;;5.30;3.90;;;19.40;69.90;;;;;;21021444;28;20069;-81
2021/09/09 05:10:06;;;;;;;6.07;4.00;;;19.40;69.90;;;;;;21062320;28;20047;-81
2021/09/09 05:20:08;;;;;;;5.32;3.97;;;19.40;70.00;;;;;;21029893;28;20474;-83
2021/09/09 05:30:09;;;;;;;6.22;4.57;;;19.40;69.90;;;;;;20987275;28;20044;-76
2021/09/09 05:40:10;;;;;;;5.32;3.88;;;19.40;69.80;;;;;;21018354;28;20024;-78
2021/09/09 05:50:11;;;;;;;5.30;4.18;;;19.40;69.90;;;;;;21028781;28;20067;-79
2021/09/09 06:00:12;;;;;;;5.63;3.50;;;19.40;69.80;;;;;;21022894;28;20024;-85
2021/09/09 06:10:13;;;;;;;5.82;4.35;;;19.40;69.90;;;;;;21028161;28;20082;-84
2021/09/09 06:20:14;;;;;;;6.57;3.95;;;19.40;69.90;;;;;;21044235;28;20046;-84
2021/09/09 06:30:16;;;;;;;5.07;3.72;;;19.40;69.90;;;;;;21024822;28;20575;-83
2021/09/09 06:40:18;;;;;;;4.78;3.58;;;19.40;69.90;;;;;;21074597;28;20067;-82
2021/09/09 06:50:19;;;;;;;7.50;4.00;;;19.40;69.90;;;;;;21078635;28;20040;-83
2021/09/09 07:00:19;;;;;;;7.05;4.45;;;19.40;69.90;;;;;;21059920;28;20062;-83
2021/09/09 07:10:21;;;;;;;5.53;4.28;;;19.40;70.00;;;;;;21061153;28;20048;-83
2021/09/09 07:20:23;;;;;;;6.20;4.75;;;19.40;70.00;;;;;;21055396;28;20036;-82
2021/09/09 07:30:23;;;;;;;11.30;4.75;;;19.40;70.00;;;;;;21036563;28;20040;-77
2021/09/09 07:40:24;;;;;;;6.32;4.18;;;19.40;69.90;;;;;;20979038;28;20030;-81
2021/09/09 07:50:26;;;;;;;6.63;4.53;;;19.40;70.00;;;;;;21048146;28;20052;-78
2021/09/09 08:00:27;;;;;;;7.63;4.20;;;19.50;70.00;;;;;;21032616;28;20461;-79
2021/09/09 08:10:27;;;;;;;8.63;4.30;;;19.50;70.00;;;;;;21039861;28;20501;-77
2021/09/09 08:20:30;;;;;;;5.78;3.75;;;19.60;70.00;;;;;;20969955;28;2198545;-79
2021/09/09 08:30:31;;;;;;;6.03;4.75;;;19.60;70.10;;;;;;21042230;28;20038;-79
2021/09/09 08:40:31;;;;;;;7.28;3.92;;;19.50;70.10;;;;;;21010462;28;20040;-77
2021/09/09 08:50:32;;;;;;;5.45;3.90;;;19.60;70.20;;;;;;21007878;28;20470;-77
2021/09/09 09:00:34;;;;;;;6.38;3.92;;;19.60;70.10;;;;;;21013647;28;20494;-77
2021/09/09 09:10:34;;;;;;;5.28;3.30;;;19.60;70.20;;;;;;21022725;28;20134;-77
2021/09/09 09:20:49;;;;;;;4.30;3.00;;;19.60;70.10;;;;;;21005522;28;20612;-77
2021/09/09 09:31:03;;;;;;;4.65;3.47;;;19.60;70.70;;;;;;21019741;28;20111;-77
2021/09/09 09:41:07;;;;;;;5.18;3.65;;;19.60;70.00;;;;;;20975750;28;20085;-77
2021/09/09 09:51:07;;;;;;;4.20;3.20;;;19.60;70.00;;;;;;21002036;28;20068;-77
2021/09/09 10:01:08;;;;;;;4.22;2.97;;;19.70;70.00;;;;;;21017170;28;20042;-76
2021/09/09 10:11:09;;;;;;;4.68;2.97;;;19.70;70.10;;;;;;21409730;22;20020;-72
2021/09/09 10:21:09;;;;;;;5.20;3.38;;;19.80;70.10;;;;;;21133624;27;20131;-72
2021/09/09 10:31:19;;;;;;;4.03;3.15;;;19.80;70.10;;;;;;21069018;28;20032;-73
2021/09/09 10:41:27;;;;;;;4.95;3.20;;;19.80;70.20;;;;;;21111226;28;20043;-73
2021/09/09 10:51:27;;;;;;;6.78;3.00;;;19.80;70.30;;;;;;21120588;28;20096;-79
2021/09/09 11:01:28;;;;;;;4.20;3.05;;;19.90;71.00;;;;;;21103256;28;20035;-74
2021/09/09 11:11:30;;;;;;;3.95;2.90;;;19.90;70.50;;;;;;21141683;28;20108;-77
2021/09/09 11:21:35;;;;;;;4.93;2.65;;;19.90;70.50;;;;;;21121097;28;20040;-73
2021/09/09 11:31:57;;;;;;;4.57;2.97;;;19.90;70.50;;;;;;21129861;28;20061;-73
2021/09/09 11:41:59;;;;;;;4.75;3.00;;;19.90;70.50;;;;;;21112291;28;20110;-75
2021/09/09 11:51:59;;;;;;;6.90;2.70;;;19.90;71.10;;;;;;21167885;28;20066;-75
2021/09/09 12:02:06;;;;;;;3.93;2.87;;;20.00;70.60;;;;;;21148594;28;20481;-74
2021/09/09 12:12:09;;;;;;;4.28;2.72;;;20.00;70.50;;;;;;21132796;28;20320;-75
2021/09/09 12:22:09;;;;;;;5.80;3.10;;;20.00;70.60;;;;;;21067548;28;20397;-76
2021/09/09 12:32:28;;;;;;;12.30;3.10;;;20.00;70.60;;;;;;21147493;28;20057;-77
2021/09/09 12:42:31;;;;;;;3.90;2.40;;;20.10;70.70;;;;;;21138767;28;20035;-76
2021/09/09 12:52:31;;;;;;;4.70;2.88;;;20.10;70.70;;;;;;21163467;28;20039;-77
2021/09/09 13:02:32;;;;;;;4.20;3.08;;;20.10;70.70;;;;;;21099544;28;20127;-78
2021/09/09 13:12:32;;;;;;;3.17;2.58;;;20.10;70.70;;;;;;21132127;28;20035;-80
2021/09/09 13:22:34;;;;;;;3.20;2.00;;;20.10;70.70;;;;;;21162900;28;20031;-79
2021/09/09 13:32:34;;;;;;;3.65;2.65;;;20.10;70.60;;;;;;21107368;28;20782;-78
2021/09/09 13:42:35;;;;;;;3.70;2.50;;;20.10;70.60;;;;;;21107175;28;20076;-75
2021/09/09 13:52:36;;;;;;;3.80;2.70;;;20.10;70.50;;;;;;21054409;28;20056;-74
2021/09/09 14:02:37;;;;;;;4.10;2.58;;;20.20;70.50;;;;;;21096745;28;20031;-77
2021/09/09 14:12:38;;;;;;;4.40;2.83;;;20.20;70.50;;;;;;21105060;28;20432;-78
2021/09/09 14:22:39;;;;;;;3.92;2.55;;;20.20;70.40;;;;;;21138291;28;20031;-76
2021/09/09 14:32:39;;;;;;;5.07;2.60;;;20.30;70.30;;;;;;21104981;28;20433;-77
2021/09/09 14:42:40;;;;;;;5.05;3.53;;;20.30;70.20;;;;;;21108388;28;20760;-78
2021/09/09 14:52:41;;;;;;;8.63;3.75;;;20.40;70.40;;;;;;21107847;28;20036;-76
2021/09/09 15:02:41;;;;;;;5.43;3.90;;;20.50;70.50;;;;;;21126129;28;20027;-78
2021/09/09 15:12:42;;;;;;;7.75;3.33;;;20.60;70.50;;;;;;21137260;28;20309;-79
2021/09/09 15:22:42;;;;;;;4.83;3.47;;;20.70;70.50;;;;;;21134629;28;20115;-79
2021/09/09 15:32:43;;;;;;;7.00;3.70;;;20.80;70.50;;;;;;21152525;28;20517;-79
2021/09/09 15:42:44;;;;;;;5.93;4.00;;;20.90;70.60;;;;;;21133777;28;20367;-79
2021/09/09 15:52:45;;;;;;;6.80;4.70;;;21.10;71.10;;;;;;21150859;28;20081;-79
2021/09/09 16:02:46;;;;;;;5.22;4.03;;;21.20;70.50;;;;;;21149582;28;20065;-79
2021/09/09 16:12:47;;;;;;;6.05;4.28;;;21.20;71.00;;;;;;21151003;28;20063;-79
2021/09/09 16:22:48;;;;;;;5.40;4.00;;;21.20;70.80;;;;;;21133087;28;20044;-77
2021/09/09 16:32:48;;;;;;;7.20;4.30;;;21.10;70.90;;;;;;21126931;28;20180;-84
2021/09/09 16:42:49;;;;;;;8.25;4.35;;;21.20;70.90;;;;;;21062196;28;20289;-78
2021/09/09 16:52:49;;;;;;;8.85;4.35;;;21.10;71.00;;;;;;21081490;28;20105;-81
2021/09/09 17:02:51;;;;;;;6.50;4.32;;;21.10;71.10;;;;;;21066844;28;20775;-81
2021/09/09 17:12:52;;;;;;;9.40;4.18;;;21.00;71.10;;;;;;21046467;28;20451;-81
2021/09/09 17:22:53;;;;;;;5.53;3.90;;;21.10;71.30;;;;;;21046035;28;20084;-82
2021/09/09 17:32:54;;;;;;;6.32;4.20;;;21.00;71.30;;;;;;21103225;28;20572;-77
2021/09/09 17:42:55;;;;;;;7.85;3.92;;;21.00;71.60;;;;;;21138322;28;20067;-78
2021/09/09 17:52:55;;;;;;;5.38;3.85;;;20.90;71.90;;;;;;21139105;28;20059;-78
2021/09/09 18:02:56;;;;;;;5.85;3.97;;;20.90;72.10;;;;;;21105511;28;20039;-78
2021/09/09 18:12:57;;;;;;;7.40;3.67;;;20.90;72.10;;;;;;21101809;28;20194;-78
2021/09/09 18:22:57;;;;;;;6.10;4.03;;;20.80;72.00;;;;;;21095593;28;20058;-77
2021/09/09 18:32:58;;;;;;;5.75;4.10;;;20.80;72.00;;;;;;21118922;28;20118;-77
2021/09/09 18:42:58;;;;;;;4.60;3.53;;;20.80;72.00;;;;;;21112677;28;20469;-77
2021/09/09 18:52:59;;;;;;;5.82;4.07;;;20.80;71.90;;;;;;21099339;28;20038;-78
2021/09/09 19:03:00;;;;;;;4.68;3.60;;;20.70;71.80;;;;;;21105383;28;20042;-78
2021/09/09 19:13:01;;;;;;;5.43;3.88;;;20.70;71.90;;;;;;21111759;28;20086;-78
2021/09/09 19:23:02;;;;;;;6.72;3.88;;;20.70;71.90;;;;;;21094576;28;20024;-78
2021/09/09 19:33:03;;;;;;;4.93;3.40;;;20.70;71.80;;;;;;21087464;28;20035;-78
2021/09/09 19:43:03;;;;;;;5.63;4.07;;;20.70;71.80;;;;;;21087486;28;20039;-79
2021/09/09 19:53:04;;;;;;;5.03;3.92;;;20.70;71.80;;;;;;21098867;28;20435;-79
2021/09/09 20:03:05;;;;;;;5.63;4.18;;;20.70;71.90;;;;;;21087861;28;20079;-78
2021/09/09 20:13:05;;;;;;;5.10;4.30;;;20.60;71.80;;;;;;21072679;28;20486;-78
2021/09/09 20:23:06;;;;;;;5.25;4.13;;;20.60;71.80;;;;;;21088941;28;20428;-78
2021/09/09 20:33:06;;;;;;;5.38;3.58;;;20.60;71.80;;;;;;21104781;28;20409;-78
2021/09/09 20:43:07;;;;;;;5.15;3.95;;;20.60;71.90;;;;;;21075924;28;20045;-78
2021/09/09 20:53:08;;;;;;;5.63;4.10;;;20.60;71.90;;;;;;21083409;28;20122;-80
2021/09/09 21:03:08;;;;;;;7.05;3.90;;;20.60;71.90;;;;;;21097364;28;20035;-77
2021/09/09 21:13:10;;;;;;;5.15;3.90;;;20.60;71.90;;;;;;21101716;28;20035;-78
2021/09/09 21:23:10;;;;;;;5.97;4.22;;;20.60;72.00;;;;;;21121038;28;20535;-78
2021/09/09 21:33:11;;;;;;;7.53;4.72;;;20.60;72.00;;;;;;21156005;28;20039;-78
2021/09/09 21:43:11;;;;;;;5.72;4.50;;;20.60;72.00;;;;;;21106619;28;20035;-78
2021/09/09 21:53:12;;;;;;;5.75;4.40;;;20.60;72.00;;;;;;21156749;28;20125;-79
2021/09/09 22:03:12;;;;;;;6.38;4.30;;;20.60;72.00;;;;;;21139018;28;20055;-79
2021/09/09 22:13:13;;;;;;;9.10;4.80;;;20.60;72.00;;;;;;21137960;28;20100;-78
2021/09/09 22:23:14;;;;;;;7.72;5.82;;;20.60;72.10;;;;;;21104399;28;20067;-79
2021/09/09 22:33:15;;;;;;;6.47;4.63;;;20.60;72.10;;;;;;21138658;28;20058;-79
2021/09/09 22:43:15;;;;;;;9.13;5.30;;;20.50;72.10;;;;;;21154151;28;20378;-79
2021/09/09 23:04:19;;;;;;;5.88;4.65;;;20.50;72.00;;;;;;21148543;28;20031;-79
2021/09/09 23:14:20;;;;;;;6.50;5.28;;;20.50;72.00;;;;;;21135485;28;20411;-79
2021/09/09 23:24:21;;;;;;;6.03;4.25;;;20.60;72.10;;;;;;21126890;28;20398;-79
2021/09/09 23:34:21;;;;;;;6.18;4.53;;;20.60;72.10;;;;;;21133607;28;20774;-79
2021/09/09 23:44:22;;;;;;;6.03;4.82;;;20.60;72.10;;;;;;21150803;28;20025;-79
2021/09/09 23:54:23;;;;;;;5.63;4.70;;;20.50;72.10;;;;;;21149456;28;20044;-78
